sensor_id;sensor_type;location;lat;lon;timestamp;temperature;humidity
71523;HTU21D;59343;51.102;5.884;2022-11-20T00:00:54;5.28;73.66
71523;HTU21D;59343;51.102;5.884;2022-11-20T00:03:20;5.26;73.89
71523;HTU21D;59343;51.102;5.884;2022-11-20T00:05:46;5.30;74.34
71523;HTU21D;59343;51.102;5.884;2022-11-20T00:08:12;5.28;74.26
71523;HTU21D;59343;51.102;5.884;2022-11-20T00:10:39;5.24;74.15
71523;HTU21D;59343;51.102;5.884;2022-11-20T00:13:06;5.25;74.57
71523;HTU21D;59343;51.102;5.884;2022-11-20T00:15:33;5.31;74.71
71523;HTU21D;59343;51.102;5.884;2022-11-20T00:17:59;5.37;74.95
71523;HTU21D;59343;51.102;5.884;2022-11-20T00:20:25;5.40;74.86
71523;HTU21D;59343;51.102;5.884;2022-11-20T00:22:51;5.43;74.73
71523;HTU21D;59343;51.102;5.884;2022-11-20T00:25:18;5.46;74.70
71523;HTU21D;59343;51.102;5.884;2022-11-20T00:27:44;5.46;74.52
71523;HTU21D;59343;51.102;5.884;2022-11-20T00:30:10;5.41;74.13
71523;HTU21D;59343;51.102;5.884;2022-11-20T00:32:37;5.41;74.17
71523;HTU21D;59343;51.102;5.884;2022-11-20T00:35:03;5.40;74.12
71523;HTU21D;59343;51.102;5.884;2022-11-20T00:37:29;5.41;74.26
71523;HTU21D;59343;51.102;5.884;2022-11-20T00:39:55;5.43;74.35
71523;HTU21D;59343;51.102;5.884;2022-11-20T00:42:21;5.48;74.40
71523;HTU21D;59343;51.102;5.884;2022-11-20T00:44:47;5.52;74.46
71523;HTU21D;59343;51.102;5.884;2022-11-20T00:47:13;5.54;74.54
71523;HTU21D;59343;51.102;5.884;2022-11-20T00:49:39;5.57;74.45
71523;HTU21D;59343;51.102;5.884;2022-11-20T00:52:05;5.60;74.37
71523;HTU21D;59343;51.102;5.884;2022-11-20T00:54:31;5.60;74.34
71523;HTU21D;59343;51.102;5.884;2022-11-20T00:56:57;5.60;74.22
71523;HTU21D;59343;51.102;5.884;2022-11-20T00:59:23;5.60;74.35
71523;HTU21D;59343;51.102;5.884;2022-11-20T01:01:49;5.62;74.13
71523;HTU21D;59343;51.102;5.884;2022-11-20T01:04:15;5.54;73.77
71523;HTU21D;59343;51.102;5.884;2022-11-20T01:06:40;5.49;73.72
71523;HTU21D;59343;51.102;5.884;2022-11-20T01:09:12;5.48;74.14
71523;HTU21D;59343;51.102;5.884;2022-11-20T01:11:42;5.50;74.58
71523;HTU21D;59343;51.102;5.884;2022-11-20T01:14:18;5.54;74.39
71523;HTU21D;59343;51.102;5.884;2022-11-20T01:16:47;5.53;73.83
71523;HTU21D;59343;51.102;5.884;2022-11-20T01:19:19;5.47;73.56
71523;HTU21D;59343;51.102;5.884;2022-11-20T01:21:49;5.41;73.64
71523;HTU21D;59343;51.102;5.884;2022-11-20T01:24:17;5.42;73.86
71523;HTU21D;59343;51.102;5.884;2022-11-20T01:26:47;5.42;73.61
71523;HTU21D;59343;51.102;5.884;2022-11-20T01:29:21;5.37;73.65
71523;HTU21D;59343;51.102;5.884;2022-11-20T01:31:47;5.33;73.93
71523;HTU21D;59343;51.102;5.884;2022-11-20T01:34:17;5.37;74.32
71523;HTU21D;59343;51.102;5.884;2022-11-20T01:36:44;5.37;73.98
71523;HTU21D;59343;51.102;5.884;2022-11-20T01:39:19;5.32;74.02
71523;HTU21D;59343;51.102;5.884;2022-11-20T01:41:50;5.28;74.03
71523;HTU21D;59343;51.102;5.884;2022-11-20T01:47:37;5.23;74.26
71523;HTU21D;59343;51.102;5.884;2022-11-20T01:50:13;5.26;74.41
71523;HTU21D;59343;51.102;5.884;2022-11-20T01:52:53;5.30;74.15
71523;HTU21D;59343;51.102;5.884;2022-11-20T01:55:48;5.23;74.03
71523;HTU21D;59343;51.102;5.884;2022-11-20T01:58:20;5.17;74.31
71523;HTU21D;59343;51.102;5.884;2022-11-20T02:00:48;5.10;74.23
71523;HTU21D;59343;51.102;5.884;2022-11-20T02:03:17;5.06;74.44
71523;HTU21D;59343;51.102;5.884;2022-11-20T02:06:11;5.02;74.71
71523;HTU21D;59343;51.102;5.884;2022-11-20T02:08:39;4.95;75.05
71523;HTU21D;59343;51.102;5.884;2022-11-20T02:11:05;4.96;75.15
71523;HTU21D;59343;51.102;5.884;2022-11-20T02:13:31;4.95;75.35
71523;HTU21D;59343;51.102;5.884;2022-11-20T02:16:31;4.93;75.43
71523;HTU21D;59343;51.102;5.884;2022-11-20T02:19:01;4.92;75.48
71523;HTU21D;59343;51.102;5.884;2022-11-20T02:22:28;4.90;75.67
71523;HTU21D;59343;51.102;5.884;2022-11-20T02:24:34;4.88;75.65
71523;HTU21D;59343;51.102;5.884;2022-11-20T02:27:05;4.91;75.65
71523;HTU21D;59343;51.102;5.884;2022-11-20T02:29:43;4.95;75.69
71523;HTU21D;59343;51.102;5.884;2022-11-20T02:34:51;5.06;75.60
71523;HTU21D;59343;51.102;5.884;2022-11-20T02:37:18;5.08;75.44
71523;HTU21D;59343;51.102;5.884;2022-11-20T02:39:51;5.10;75.27
71523;HTU21D;59343;51.102;5.884;2022-11-20T02:42:18;5.12;75.50
71523;HTU21D;59343;51.102;5.884;2022-11-20T02:44:44;5.15;75.52
71523;HTU21D;59343;51.102;5.884;2022-11-20T02:47:10;5.15;75.44
71523;HTU21D;59343;51.102;5.884;2022-11-20T02:49:36;5.19;75.26
71523;HTU21D;59343;51.102;5.884;2022-11-20T02:52:02;5.21;75.49
71523;HTU21D;59343;51.102;5.884;2022-11-20T02:54:28;5.21;75.61
71523;HTU21D;59343;51.102;5.884;2022-11-20T02:56:54;5.24;75.56
71523;HTU21D;59343;51.102;5.884;2022-11-20T02:59:20;5.24;75.60
71523;HTU21D;59343;51.102;5.884;2022-11-20T03:01:46;5.25;75.80
71523;HTU21D;59343;51.102;5.884;2022-11-20T03:04:12;5.24;75.93
71523;HTU21D;59343;51.102;5.884;2022-11-20T03:06:38;5.26;75.92
71523;HTU21D;59343;51.102;5.884;2022-11-20T03:09:04;5.24;75.98
71523;HTU21D;59343;51.102;5.884;2022-11-20T03:11:30;5.21;76.07
71523;HTU21D;59343;51.102;5.884;2022-11-20T03:13:55;5.19;76.14
71523;HTU21D;59343;51.102;5.884;2022-11-20T03:16:23;5.12;76.12
71523;HTU21D;59343;51.102;5.884;2022-11-20T03:18:49;5.07;76.14
71523;HTU21D;59343;51.102;5.884;2022-11-20T03:21:17;5.04;76.34
71523;HTU21D;59343;51.102;5.884;2022-11-20T03:23:43;5.00;76.39
71523;HTU21D;59343;51.102;5.884;2022-11-20T03:26:16;4.97;76.59
71523;HTU21D;59343;51.102;5.884;2022-11-20T03:28:51;4.97;76.64
71523;HTU21D;59343;51.102;5.884;2022-11-20T03:31:20;4.98;76.68
71523;HTU21D;59343;51.102;5.884;2022-11-20T03:33:47;4.97;76.73
71523;HTU21D;59343;51.102;5.884;2022-11-20T03:36:15;4.98;76.68
71523;HTU21D;59343;51.102;5.884;2022-11-20T03:38:41;5.03;76.73
71523;HTU21D;59343;51.102;5.884;2022-11-20T03:41:13;5.02;76.53
71523;HTU21D;59343;51.102;5.884;2022-11-20T03:43:40;4.95;76.48
71523;HTU21D;59343;51.102;5.884;2022-11-20T03:46:07;4.91;76.60
71523;HTU21D;59343;51.102;5.884;2022-11-20T03:48:33;4.89;76.83
71523;HTU21D;59343;51.102;5.884;2022-11-20T03:51:17;4.86;76.80
71523;HTU21D;59343;51.102;5.884;2022-11-20T03:53:45;4.82;76.81
71523;HTU21D;59343;51.102;5.884;2022-11-20T03:56:13;4.81;76.79
71523;HTU21D;59343;51.102;5.884;2022-11-20T03:58:42;4.80;76.81
71523;HTU21D;59343;51.102;5.884;2022-11-20T04:01:13;4.78;76.83
71523;HTU21D;59343;51.102;5.884;2022-11-20T04:03:41;4.81;76.92
71523;HTU21D;59343;51.102;5.884;2022-11-20T04:06:09;4.84;76.97
71523;HTU21D;59343;51.102;5.884;2022-11-20T04:08:35;4.90;76.88
71523;HTU21D;59343;51.102;5.884;2022-11-20T04:11:32;4.93;76.73
71523;HTU21D;59343;51.102;5.884;2022-11-20T04:14:00;4.94;76.36
71523;HTU21D;59343;51.102;5.884;2022-11-20T04:16:31;4.97;76.32
71523;HTU21D;59343;51.102;5.884;2022-11-20T04:19:02;4.98;76.16
71523;HTU21D;59343;51.102;5.884;2022-11-20T04:21:29;5.02;75.82
71523;HTU21D;59343;51.102;5.884;2022-11-20T04:23:55;5.01;75.63
71523;HTU21D;59343;51.102;5.884;2022-11-20T04:26:23;4.97;75.67
71523;HTU21D;59343;51.102;5.884;2022-11-20T04:28:50;4.96;75.74
71523;HTU21D;59343;51.102;5.884;2022-11-20T04:31:22;4.95;75.65
71523;HTU21D;59343;51.102;5.884;2022-11-20T04:36:30;5.03;75.89
71523;HTU21D;59343;51.102;5.884;2022-11-20T04:38:58;5.06;75.52
71523;HTU21D;59343;51.102;5.884;2022-11-20T04:41:28;5.05;75.70
71523;HTU21D;59343;51.102;5.884;2022-11-20T04:43:56;5.06;75.93
71523;HTU21D;59343;51.102;5.884;2022-11-20T04:46:26;5.06;76.01
71523;HTU21D;59343;51.102;5.884;2022-11-20T04:48:52;5.09;75.99
71523;HTU21D;59343;51.102;5.884;2022-11-20T04:51:18;5.12;76.18
71523;HTU21D;59343;51.102;5.884;2022-11-20T04:53:45;5.10;76.05
71523;HTU21D;59343;51.102;5.884;2022-11-20T04:56:12;5.06;76.39
71523;HTU21D;59343;51.102;5.884;2022-11-20T04:58:39;5.03;76.57
71523;HTU21D;59343;51.102;5.884;2022-11-20T05:01:11;5.01;76.88
71523;HTU21D;59343;51.102;5.884;2022-11-20T05:03:39;5.04;76.99
71523;HTU21D;59343;51.102;5.884;2022-11-20T05:06:06;5.05;76.94
71523;HTU21D;59343;51.102;5.884;2022-11-20T05:08:33;5.08;76.90
71523;HTU21D;59343;51.102;5.884;2022-11-20T05:11:03;5.09;76.86
71523;HTU21D;59343;51.102;5.884;2022-11-20T05:13:30;5.09;76.77
71523;HTU21D;59343;51.102;5.884;2022-11-20T05:16:04;5.13;76.74
71523;HTU21D;59343;51.102;5.884;2022-11-20T05:18:31;5.15;76.61
71523;HTU21D;59343;51.102;5.884;2022-11-20T05:20:58;5.15;76.72
71523;HTU21D;59343;51.102;5.884;2022-11-20T05:23:24;5.17;76.75
71523;HTU21D;59343;51.102;5.884;2022-11-20T05:25:55;5.16;76.62
71523;HTU21D;59343;51.102;5.884;2022-11-20T05:28:22;5.18;76.54
71523;HTU21D;59343;51.102;5.884;2022-11-20T05:30:49;5.19;76.59
71523;HTU21D;59343;51.102;5.884;2022-11-20T05:33:15;5.19;76.44
71523;HTU21D;59343;51.102;5.884;2022-11-20T05:35:41;5.20;76.38
71523;HTU21D;59343;51.102;5.884;2022-11-20T05:38:08;5.21;76.29
71523;HTU21D;59343;51.102;5.884;2022-11-20T05:40:34;5.23;76.15
71523;HTU21D;59343;51.102;5.884;2022-11-20T05:43:00;5.22;76.25
71523;HTU21D;59343;51.102;5.884;2022-11-20T05:45:25;5.21;75.89
71523;HTU21D;59343;51.102;5.884;2022-11-20T05:47:51;5.20;76.01
71523;HTU21D;59343;51.102;5.884;2022-11-20T05:50:17;5.19;76.09
71523;HTU21D;59343;51.102;5.884;2022-11-20T05:52:44;5.21;75.95
71523;HTU21D;59343;51.102;5.884;2022-11-20T05:55:10;5.20;75.76
71523;HTU21D;59343;51.102;5.884;2022-11-20T05:57:36;5.18;75.58
71523;HTU21D;59343;51.102;5.884;2022-11-20T06:00:03;5.16;75.85
71523;HTU21D;59343;51.102;5.884;2022-11-20T06:02:30;5.15;75.42
71523;HTU21D;59343;51.102;5.884;2022-11-20T06:04:59;5.08;75.72
71523;HTU21D;59343;51.102;5.884;2022-11-20T06:07:25;5.04;75.89
71523;HTU21D;59343;51.102;5.884;2022-11-20T06:09:51;5.06;76.08
71523;HTU21D;59343;51.102;5.884;2022-11-20T06:12:17;5.05;76.14
71523;HTU21D;59343;51.102;5.884;2022-11-20T06:14:43;5.06;76.29
71523;HTU21D;59343;51.102;5.884;2022-11-20T06:17:08;5.04;76.48
71523;HTU21D;59343;51.102;5.884;2022-11-20T06:19:34;5.05;76.52
71523;HTU21D;59343;51.102;5.884;2022-11-20T06:22:00;5.07;76.66
71523;HTU21D;59343;51.102;5.884;2022-11-20T06:24:26;5.06;76.76
71523;HTU21D;59343;51.102;5.884;2022-11-20T06:26:52;5.10;76.82
71523;HTU21D;59343;51.102;5.884;2022-11-20T06:29:18;5.09;76.70
71523;HTU21D;59343;51.102;5.884;2022-11-20T06:31:45;5.11;76.71
71523;HTU21D;59343;51.102;5.884;2022-11-20T06:34:10;5.13;76.53
71523;HTU21D;59343;51.102;5.884;2022-11-20T06:36:36;5.12;76.37
71523;HTU21D;59343;51.102;5.884;2022-11-20T06:39:03;5.12;76.42
71523;HTU21D;59343;51.102;5.884;2022-11-20T06:41:29;5.12;76.63
71523;HTU21D;59343;51.102;5.884;2022-11-20T06:43:55;5.12;76.39
71523;HTU21D;59343;51.102;5.884;2022-11-20T06:46:21;5.10;76.41
71523;HTU21D;59343;51.102;5.884;2022-11-20T06:48:48;5.11;76.41
71523;HTU21D;59343;51.102;5.884;2022-11-20T06:51:15;5.16;76.54
71523;HTU21D;59343;51.102;5.884;2022-11-20T06:53:41;5.17;76.56
71523;HTU21D;59343;51.102;5.884;2022-11-20T06:56:07;5.19;76.57
71523;HTU21D;59343;51.102;5.884;2022-11-20T06:58:34;5.21;76.69
71523;HTU21D;59343;51.102;5.884;2022-11-20T07:01:03;5.23;76.50
71523;HTU21D;59343;51.102;5.884;2022-11-20T07:03:29;5.26;76.36
71523;HTU21D;59343;51.102;5.884;2022-11-20T07:05:57;5.28;76.32
71523;HTU21D;59343;51.102;5.884;2022-11-20T07:08:24;5.31;76.33
71523;HTU21D;59343;51.102;5.884;2022-11-20T07:10:50;5.33;76.30
71523;HTU21D;59343;51.102;5.884;2022-11-20T07:13:16;5.37;76.21
71523;HTU21D;59343;51.102;5.884;2022-11-20T07:15:42;5.37;76.34
71523;HTU21D;59343;51.102;5.884;2022-11-20T07:18:08;5.39;76.46
71523;HTU21D;59343;51.102;5.884;2022-11-20T07:20:34;5.40;76.59
71523;HTU21D;59343;51.102;5.884;2022-11-20T07:22:59;5.40;76.66
71523;HTU21D;59343;51.102;5.884;2022-11-20T07:25:27;5.40;76.82
71523;HTU21D;59343;51.102;5.884;2022-11-20T07:27:56;5.45;76.95
71523;HTU21D;59343;51.102;5.884;2022-11-20T07:30:22;5.47;77.01
71523;HTU21D;59343;51.102;5.884;2022-11-20T07:32:52;5.51;76.91
71523;HTU21D;59343;51.102;5.884;2022-11-20T07:35:18;5.51;76.86
71523;HTU21D;59343;51.102;5.884;2022-11-20T07:37:44;5.53;76.93
71523;HTU21D;59343;51.102;5.884;2022-11-20T07:40:12;5.54;77.17
71523;HTU21D;59343;51.102;5.884;2022-11-20T07:42:39;5.56;77.04
71523;HTU21D;59343;51.102;5.884;2022-11-20T07:45:05;5.60;77.09
71523;HTU21D;59343;51.102;5.884;2022-11-20T07:47:35;5.60;77.18
71523;HTU21D;59343;51.102;5.884;2022-11-20T07:50:02;5.64;77.28
71523;HTU21D;59343;51.102;5.884;2022-11-20T07:52:29;5.65;77.26
71523;HTU21D;59343;51.102;5.884;2022-11-20T07:54:54;5.66;77.26
71523;HTU21D;59343;51.102;5.884;2022-11-20T07:57:20;5.68;77.28
71523;HTU21D;59343;51.102;5.884;2022-11-20T07:59:46;5.72;77.21
71523;HTU21D;59343;51.102;5.884;2022-11-20T08:02:12;5.75;77.29
71523;HTU21D;59343;51.102;5.884;2022-11-20T08:04:38;5.75;77.33
71523;HTU21D;59343;51.102;5.884;2022-11-20T08:07:04;5.76;77.19
71523;HTU21D;59343;51.102;5.884;2022-11-20T08:09:30;5.76;77.18
71523;HTU21D;59343;51.102;5.884;2022-11-20T08:11:56;5.78;77.39
71523;HTU21D;59343;51.102;5.884;2022-11-20T08:14:40;5.78;77.72
71523;HTU21D;59343;51.102;5.884;2022-11-20T08:17:06;5.79;77.72
71523;HTU21D;59343;51.102;5.884;2022-11-20T08:19:32;5.80;77.66
71523;HTU21D;59343;51.102;5.884;2022-11-20T08:21:58;5.80;77.98
71523;HTU21D;59343;51.102;5.884;2022-11-20T08:24:24;5.82;78.06
71523;HTU21D;59343;51.102;5.884;2022-11-20T08:26:52;5.84;78.23
71523;HTU21D;59343;51.102;5.884;2022-11-20T08:29:18;5.86;78.40
71523;HTU21D;59343;51.102;5.884;2022-11-20T08:31:44;5.89;78.47
71523;HTU21D;59343;51.102;5.884;2022-11-20T08:34:10;5.90;78.43
71523;HTU21D;59343;51.102;5.884;2022-11-20T08:36:36;5.92;78.78
71523;HTU21D;59343;51.102;5.884;2022-11-20T08:39:03;5.92;78.89
71523;HTU21D;59343;51.102;5.884;2022-11-20T08:41:30;5.91;78.69
71523;HTU21D;59343;51.102;5.884;2022-11-20T08:44:04;5.85;78.88
71523;HTU21D;59343;51.102;5.884;2022-11-20T08:48:59;5.90;79.46
71523;HTU21D;59343;51.102;5.884;2022-11-20T08:51:25;5.95;79.39
71523;HTU21D;59343;51.102;5.884;2022-11-20T08:53:51;5.97;79.22
71523;HTU21D;59343;51.102;5.884;2022-11-20T08:56:17;5.92;79.22
71523;HTU21D;59343;51.102;5.884;2022-11-20T08:58:44;5.90;79.66
71523;HTU21D;59343;51.102;5.884;2022-11-20T09:01:10;5.87;79.56
71523;HTU21D;59343;51.102;5.884;2022-11-20T09:03:36;5.83;79.86
71523;HTU21D;59343;51.102;5.884;2022-11-20T09:06:05;5.84;80.04
71523;HTU21D;59343;51.102;5.884;2022-11-20T09:08:33;5.84;80.18
71523;HTU21D;59343;51.102;5.884;2022-11-20T09:10:59;5.90;80.25
71523;HTU21D;59343;51.102;5.884;2022-11-20T09:13:27;5.94;80.12
71523;HTU21D;59343;51.102;5.884;2022-11-20T09:16:02;5.98;80.16
71523;HTU21D;59343;51.102;5.884;2022-11-20T09:18:28;6.02;79.90
71523;HTU21D;59343;51.102;5.884;2022-11-20T09:20:58;6.05;79.59
71523;HTU21D;59343;51.102;5.884;2022-11-20T09:23:24;6.02;79.72
71523;HTU21D;59343;51.102;5.884;2022-11-20T09:25:50;6.04;79.73
71523;HTU21D;59343;51.102;5.884;2022-11-20T09:28:16;6.06;79.74
71523;HTU21D;59343;51.102;5.884;2022-11-20T09:30:44;6.08;79.94
71523;HTU21D;59343;51.102;5.884;2022-11-20T09:33:10;6.12;79.76
71523;HTU21D;59343;51.102;5.884;2022-11-20T09:35:36;6.20;79.91
71523;HTU21D;59343;51.102;5.884;2022-11-20T09:38:07;6.28;79.70
71523;HTU21D;59343;51.102;5.884;2022-11-20T09:40:38;6.37;79.40
71523;HTU21D;59343;51.102;5.884;2022-11-20T09:43:13;6.42;78.94
71523;HTU21D;59343;51.102;5.884;2022-11-20T09:51:59;6.54;78.63
71523;HTU21D;59343;51.102;5.884;2022-11-20T09:54:37;6.56;78.80
71523;HTU21D;59343;51.102;5.884;2022-11-20T09:57:11;6.58;78.90
71523;HTU21D;59343;51.102;5.884;2022-11-20T10:02:29;6.55;79.27
71523;HTU21D;59343;51.102;5.884;2022-11-20T10:05:04;6.53;79.14
71523;HTU21D;59343;51.102;5.884;2022-11-20T10:08:11;6.55;79.47
71523;HTU21D;59343;51.102;5.884;2022-11-20T10:10:42;6.60;79.54
71523;HTU21D;59343;51.102;5.884;2022-11-20T10:13:13;6.63;79.44
71523;HTU21D;59343;51.102;5.884;2022-11-20T10:21:09;6.72;79.11
71523;HTU21D;59343;51.102;5.884;2022-11-20T10:29:41;6.74;78.88
71523;HTU21D;59343;51.102;5.884;2022-11-20T10:32:20;6.75;78.80
71523;HTU21D;59343;51.102;5.884;2022-11-20T10:37:55;6.80;79.29
71523;HTU21D;59343;51.102;5.884;2022-11-20T10:40:44;6.84;79.10
71523;HTU21D;59343;51.102;5.884;2022-11-20T10:43:32;6.90;79.04
71523;HTU21D;59343;51.102;5.884;2022-11-20T10:46:08;6.96;78.86
71523;HTU21D;59343;51.102;5.884;2022-11-20T10:48:38;6.99;78.72
71523;HTU21D;59343;51.102;5.884;2022-11-20T10:54:19;7.09;78.77
71523;HTU21D;59343;51.102;5.884;2022-11-20T10:56:50;7.14;78.70
71523;HTU21D;59343;51.102;5.884;2022-11-20T11:02:39;7.25;78.58
71523;HTU21D;59343;51.102;5.884;2022-11-20T11:05:14;7.30;78.48
71523;HTU21D;59343;51.102;5.884;2022-11-20T11:07:46;7.32;78.31
71523;HTU21D;59343;51.102;5.884;2022-11-20T11:12:58;7.29;78.02
71523;HTU21D;59343;51.102;5.884;2022-11-20T11:15:28;7.27;78.37
71523;HTU21D;59343;51.102;5.884;2022-11-20T11:17:55;7.25;78.63
71523;HTU21D;59343;51.102;5.884;2022-11-20T11:20:24;7.25;78.65
71523;HTU21D;59343;51.102;5.884;2022-11-20T11:22:58;7.24;78.88
71523;HTU21D;59343;51.102;5.884;2022-11-20T11:25:34;7.22;79.01
71523;HTU21D;59343;51.102;5.884;2022-11-20T11:30:45;7.28;79.36
71523;HTU21D;59343;51.102;5.884;2022-11-20T11:33:19;7.28;79.46
71523;HTU21D;59343;51.102;5.884;2022-11-20T11:35:48;7.28;79.47
71523;HTU21D;59343;51.102;5.884;2022-11-20T11:38:37;7.29;79.89
71523;HTU21D;59343;51.102;5.884;2022-11-20T11:41:06;7.32;80.20
71523;HTU21D;59343;51.102;5.884;2022-11-20T11:43:35;7.35;80.60
71523;HTU21D;59343;51.102;5.884;2022-11-20T11:54:38;7.49;81.07
71523;HTU21D;59343;51.102;5.884;2022-11-20T12:05:30;7.69;81.20
71523;HTU21D;59343;51.102;5.884;2022-11-20T12:13:53;7.76;81.24
71523;HTU21D;59343;51.102;5.884;2022-11-20T12:16:22;7.79;81.39
71523;HTU21D;59343;51.102;5.884;2022-11-20T12:18:52;7.84;81.55
71523;HTU21D;59343;51.102;5.884;2022-11-20T12:34:43;8.07;81.55
71523;HTU21D;59343;51.102;5.884;2022-11-20T12:39:49;8.17;81.38
71523;HTU21D;59343;51.102;5.884;2022-11-20T12:56:52;8.46;81.07
71523;HTU21D;59343;51.102;5.884;2022-11-20T13:02:38;8.48;81.28
71523;HTU21D;59343;51.102;5.884;2022-11-20T13:05:14;8.49;81.39
71523;HTU21D;59343;51.102;5.884;2022-11-20T13:07:44;8.52;81.42
71523;HTU21D;59343;51.102;5.884;2022-11-20T13:10:33;8.56;81.42
71523;HTU21D;59343;51.102;5.884;2022-11-20T13:18:39;8.58;81.50
71523;HTU21D;59343;51.102;5.884;2022-11-20T13:21:23;8.61;81.45
71523;HTU21D;59343;51.102;5.884;2022-11-20T13:24:07;8.62;81.36
71523;HTU21D;59343;51.102;5.884;2022-11-20T13:26:33;8.64;81.32
71523;HTU21D;59343;51.102;5.884;2022-11-20T13:29:16;8.65;81.20
71523;HTU21D;59343;51.102;5.884;2022-11-20T13:31:48;8.64;81.24
71523;HTU21D;59343;51.102;5.884;2022-11-20T13:34:24;8.66;81.42
71523;HTU21D;59343;51.102;5.884;2022-11-20T13:36:54;8.65;81.47
71523;HTU21D;59343;51.102;5.884;2022-11-20T13:39:31;8.65;81.49
71523;HTU21D;59343;51.102;5.884;2022-11-20T13:42:25;8.64;81.52
71523;HTU21D;59343;51.102;5.884;2022-11-20T13:45:02;8.62;81.68
71523;HTU21D;59343;51.102;5.884;2022-11-20T13:47:29;8.60;81.81
71523;HTU21D;59343;51.102;5.884;2022-11-20T13:49:58;8.61;82.03
71523;HTU21D;59343;51.102;5.884;2022-11-20T13:55:40;8.62;81.91
71523;HTU21D;59343;51.102;5.884;2022-11-20T14:01:34;8.59;82.08
71523;HTU21D;59343;51.102;5.884;2022-11-20T14:04:09;8.57;82.24
71523;HTU21D;59343;51.102;5.884;2022-11-20T14:06:45;8.55;82.39
71523;HTU21D;59343;51.102;5.884;2022-11-20T14:09:30;8.53;82.56
71523;HTU21D;59343;51.102;5.884;2022-11-20T14:11:58;8.51;82.78
71523;HTU21D;59343;51.102;5.884;2022-11-20T14:14:33;8.50;83.05
71523;HTU21D;59343;51.102;5.884;2022-11-20T14:17:33;8.51;83.27
71523;HTU21D;59343;51.102;5.884;2022-11-20T14:20:11;8.49;83.39
71523;HTU21D;59343;51.102;5.884;2022-11-20T14:22:39;8.47;83.61
71523;HTU21D;59343;51.102;5.884;2022-11-20T14:27:35;8.44;83.84
71523;HTU21D;59343;51.102;5.884;2022-11-20T14:30:03;8.43;84.13
71523;HTU21D;59343;51.102;5.884;2022-11-20T14:32:31;8.42;84.28
71523;HTU21D;59343;51.102;5.884;2022-11-20T14:35:07;8.46;84.39
71523;HTU21D;59343;51.102;5.884;2022-11-20T14:37:38;8.46;83.97
71523;HTU21D;59343;51.102;5.884;2022-11-20T14:40:23;8.48;83.62
71523;HTU21D;59343;51.102;5.884;2022-11-20T14:42:49;8.50;83.44
71523;HTU21D;59343;51.102;5.884;2022-11-20T14:45:16;8.49;83.51
71523;HTU21D;59343;51.102;5.884;2022-11-20T14:47:43;8.51;83.65
71523;HTU21D;59343;51.102;5.884;2022-11-20T14:50:23;8.51;83.74
71523;HTU21D;59343;51.102;5.884;2022-11-20T14:52:59;8.55;83.90
71523;HTU21D;59343;51.102;5.884;2022-11-20T14:55:34;8.56;84.02
71523;HTU21D;59343;51.102;5.884;2022-11-20T14:58:06;8.58;83.98
71523;HTU21D;59343;51.102;5.884;2022-11-20T15:00:34;8.57;84.06
71523;HTU21D;59343;51.102;5.884;2022-11-20T15:03:00;8.58;84.25
71523;HTU21D;59343;51.102;5.884;2022-11-20T15:05:47;8.59;84.29
71523;HTU21D;59343;51.102;5.884;2022-11-20T15:08:14;8.59;84.13
71523;HTU21D;59343;51.102;5.884;2022-11-20T15:10:49;8.57;84.25
71523;HTU21D;59343;51.102;5.884;2022-11-20T15:13:30;8.57;84.33
71523;HTU21D;59343;51.102;5.884;2022-11-20T15:15:59;8.56;84.34
71523;HTU21D;59343;51.102;5.884;2022-11-20T15:18:36;8.55;84.55
71523;HTU21D;59343;51.102;5.884;2022-11-20T15:21:10;8.55;84.74
71523;HTU21D;59343;51.102;5.884;2022-11-20T15:23:36;8.51;85.03
71523;HTU21D;59343;51.102;5.884;2022-11-20T15:26:07;8.49;85.27
71523;HTU21D;59343;51.102;5.884;2022-11-20T15:28:37;8.49;85.49
71523;HTU21D;59343;51.102;5.884;2022-11-20T15:31:06;8.47;85.71
71523;HTU21D;59343;51.102;5.884;2022-11-20T15:33:32;8.45;86.01
71523;HTU21D;59343;51.102;5.884;2022-11-20T15:35:59;8.44;86.19
71523;HTU21D;59343;51.102;5.884;2022-11-20T15:38:26;8.44;86.42
71523;HTU21D;59343;51.102;5.884;2022-11-20T15:40:52;8.45;86.40
71523;HTU21D;59343;51.102;5.884;2022-11-20T15:43:18;8.44;86.48
71523;HTU21D;59343;51.102;5.884;2022-11-20T15:46:16;8.42;86.64
71523;HTU21D;59343;51.102;5.884;2022-11-20T15:48:57;8.44;86.85
71523;HTU21D;59343;51.102;5.884;2022-11-20T15:51:29;8.41;86.89
71523;HTU21D;59343;51.102;5.884;2022-11-20T15:53:56;8.43;87.17
71523;HTU21D;59343;51.102;5.884;2022-11-20T15:56:22;8.42;87.11
71523;HTU21D;59343;51.102;5.884;2022-11-20T15:58:48;8.38;87.09
71523;HTU21D;59343;51.102;5.884;2022-11-20T16:01:17;8.36;87.32
71523;HTU21D;59343;51.102;5.884;2022-11-20T16:03:43;8.37;87.48
71523;HTU21D;59343;51.102;5.884;2022-11-20T16:06:09;8.39;87.52
71523;HTU21D;59343;51.102;5.884;2022-11-20T16:08:35;8.39;87.53
71523;HTU21D;59343;51.102;5.884;2022-11-20T16:11:02;8.39;87.56
71523;HTU21D;59343;51.102;5.884;2022-11-20T16:13:28;8.39;87.56
71523;HTU21D;59343;51.102;5.884;2022-11-20T16:16:28;8.39;87.69
71523;HTU21D;59343;51.102;5.884;2022-11-20T16:18:56;8.38;87.73
71523;HTU21D;59343;51.102;5.884;2022-11-20T16:21:22;8.39;87.75
71523;HTU21D;59343;51.102;5.884;2022-11-20T16:24:02;8.39;87.93
71523;HTU21D;59343;51.102;5.884;2022-11-20T16:26:29;8.37;87.90
71523;HTU21D;59343;51.102;5.884;2022-11-20T16:28:58;8.35;88.15
71523;HTU21D;59343;51.102;5.884;2022-11-20T16:31:25;8.37;88.16
71523;HTU21D;59343;51.102;5.884;2022-11-20T16:34:02;8.38;88.47
71523;HTU21D;59343;51.102;5.884;2022-11-20T16:36:28;8.39;88.50
71523;HTU21D;59343;51.102;5.884;2022-11-20T16:38:57;8.39;88.61
71523;HTU21D;59343;51.102;5.884;2022-11-20T16:41:25;8.42;88.67
71523;HTU21D;59343;51.102;5.884;2022-11-20T16:43:53;8.45;88.80
71523;HTU21D;59343;51.102;5.884;2022-11-20T16:46:22;8.49;88.86
71523;HTU21D;59343;51.102;5.884;2022-11-20T16:48:56;8.55;88.86
71523;HTU21D;59343;51.102;5.884;2022-11-20T16:51:23;8.56;88.75
71523;HTU21D;59343;51.102;5.884;2022-11-20T16:53:49;8.57;88.87
71523;HTU21D;59343;51.102;5.884;2022-11-20T16:56:19;8.60;88.82
71523;HTU21D;59343;51.102;5.884;2022-11-20T16:58:47;8.62;88.76
71523;HTU21D;59343;51.102;5.884;2022-11-20T17:01:17;8.63;88.81
71523;HTU21D;59343;51.102;5.884;2022-11-20T17:03:52;8.64;88.83
71523;HTU21D;59343;51.102;5.884;2022-11-20T17:06:21;8.65;88.92
71523;HTU21D;59343;51.102;5.884;2022-11-20T17:08:47;8.67;89.05
71523;HTU21D;59343;51.102;5.884;2022-11-20T17:11:16;8.68;89.19
71523;HTU21D;59343;51.102;5.884;2022-11-20T17:13:43;8.68;89.24
71523;HTU21D;59343;51.102;5.884;2022-11-20T17:16:12;8.73;89.30
71523;HTU21D;59343;51.102;5.884;2022-11-20T17:18:38;8.76;89.30
71523;HTU21D;59343;51.102;5.884;2022-11-20T17:21:06;8.78;89.24
71523;HTU21D;59343;51.102;5.884;2022-11-20T17:23:35;8.83;89.14
71523;HTU21D;59343;51.102;5.884;2022-11-20T17:26:04;8.85;89.12
71523;HTU21D;59343;51.102;5.884;2022-11-20T17:28:30;8.86;89.22
71523;HTU21D;59343;51.102;5.884;2022-11-20T17:31:01;8.91;89.20
71523;HTU21D;59343;51.102;5.884;2022-11-20T17:33:29;8.94;89.21
71523;HTU21D;59343;51.102;5.884;2022-11-20T17:35:55;8.97;89.21
71523;HTU21D;59343;51.102;5.884;2022-11-20T17:38:21;8.96;89.24
71523;HTU21D;59343;51.102;5.884;2022-11-20T17:40:47;9.01;89.34
71523;HTU21D;59343;51.102;5.884;2022-11-20T17:43:13;9.03;89.28